createdAt,value
2022-10-04T00:02:47.558Z,0
2022-10-04T00:09:07.356Z,0
2022-10-04T00:15:30.448Z,0
2022-10-04T00:21:50.560Z,0
2022-10-04T00:28:13.450Z,0
2022-10-04T00:34:33.444Z,0
2022-10-04T00:40:56.373Z,0
2022-10-04T00:47:16.408Z,0
2022-10-04T00:53:39.506Z,0
2022-10-04T00:59:59.467Z,0
2022-10-04T01:06:22.422Z,0
2022-10-04T01:12:42.491Z,0
2022-10-04T01:19:05.324Z,0
2022-10-04T01:25:25.423Z,0
2022-10-04T01:31:48.622Z,0
2022-10-04T01:38:08.447Z,0
2022-10-04T01:44:31.392Z,0
2022-10-04T01:50:51.411Z,0
2022-10-04T01:57:14.403Z,0
2022-10-04T02:03:34.369Z,0
2022-10-04T02:09:57.429Z,0
2022-10-04T02:16:17.389Z,0
2022-10-04T02:22:40.405Z,0
2022-10-04T02:29:00.397Z,0
2022-10-04T02:35:23.342Z,0
2022-10-04T02:41:43.649Z,0
2022-10-04T02:48:06.426Z,0
2022-10-04T02:54:26.409Z,0
2022-10-04T03:00:49.535Z,0
2022-10-04T03:16:21.274Z,0
2022-10-04T03:22:44.899Z,0
2022-10-04T03:29:04.400Z,0
2022-10-04T03:35:24.483Z,0
2022-10-04T03:41:47.416Z,0
2022-10-04T03:48:07.384Z,0
2022-10-04T03:54:30.431Z,0
2022-10-04T04:00:50.417Z,0
2022-10-04T04:07:13.403Z,0
2022-10-04T04:13:33.457Z,0
2022-10-04T04:19:56.393Z,0
2022-10-04T04:26:16.330Z,0
2022-10-04T04:32:39.416Z,0
2022-10-04T04:38:59.317Z,0
2022-10-04T04:45:22.399Z,0
2022-10-04T04:51:42.650Z,0
2022-10-04T04:58:05.383Z,0
2022-10-04T05:04:25.471Z,0
2022-10-04T05:10:48.480Z,1
2022-10-04T05:17:08.403Z,2
2022-10-04T05:23:31.443Z,8
2022-10-04T05:29:51.398Z,20
2022-10-04T05:36:14.411Z,37
2022-10-04T05:42:34.326Z,63
2022-10-04T05:48:57.445Z,110
2022-10-04T05:55:17.539Z,176
2022-10-04T06:01:40.392Z,253
2022-10-04T06:08:00.459Z,347
2022-10-04T06:14:23.341Z,431
2022-10-04T06:20:43.459Z,509
2022-10-04T06:27:06.364Z,567
2022-10-04T06:33:26.406Z,607
2022-10-04T06:39:49.370Z,631
2022-10-04T06:46:09.382Z,665
2022-10-04T06:52:32.472Z,746
2022-10-04T06:58:52.416Z,835
2022-10-04T07:05:15.366Z,930
2022-10-04T07:11:35.464Z,1037
2022-10-04T07:17:58.387Z,1218
2022-10-04T07:24:18.469Z,1419
2022-10-04T07:30:41.423Z,1840
2022-10-04T07:37:01.480Z,1875
2022-10-04T07:43:24.343Z,2034
2022-10-04T07:49:44.688Z,2160
2022-10-04T07:56:07.501Z,2243
2022-10-04T08:19:13.373Z,2206
2022-10-04T08:25:33.324Z,2303
2022-10-04T08:31:56.377Z,2031
2022-10-04T08:38:16.386Z,1517
2022-10-04T08:44:39.373Z,1481
2022-10-04T08:50:59.411Z,2015
2022-10-04T08:57:22.432Z,1789
2022-10-04T09:03:42.419Z,1872
2022-10-04T09:10:05.751Z,2090
2022-10-04T09:16:25.795Z,2394
2022-10-04T09:22:49.470Z,2343
2022-10-04T09:29:09.359Z,2154
2022-10-04T09:35:32.576Z,2922
2022-10-04T09:41:52.535Z,2947
2022-10-04T09:48:15.561Z,3448
2022-10-04T09:54:35.408Z,3742
2022-10-04T10:00:58.351Z,2097
2022-10-04T10:07:18.671Z,2262
2022-10-04T10:13:41.374Z,2009
2022-10-04T10:20:01.333Z,4088
2022-10-04T10:26:24.405Z,3560
2022-10-04T10:32:44.341Z,2671
2022-10-04T10:39:07.362Z,3821
2022-10-04T10:45:27.560Z,4225
2022-10-04T10:51:50.717Z,3807
2022-10-04T10:58:10.339Z,3693
2022-10-04T11:04:33.350Z,2901
2022-10-04T11:10:53.441Z,3047
2022-10-04T11:17:16.481Z,3384
2022-10-04T11:23:36.386Z,4751
2022-10-04T11:29:59.379Z,4871
2022-10-04T11:36:19.555Z,5417
2022-10-04T11:42:42.370Z,5787
2022-10-04T11:49:02.354Z,6066
2022-10-04T11:55:25.451Z,5238
2022-10-04T12:01:45.325Z,5479
2022-10-04T12:08:08.431Z,5532
2022-10-04T12:14:28.607Z,5564
2022-10-04T12:20:51.363Z,5600
2022-10-04T12:27:11.397Z,5548
2022-10-04T12:33:34.358Z,5533
2022-10-04T12:39:54.433Z,5505
2022-10-04T12:46:17.457Z,5155
2022-10-04T12:52:37.470Z,5108
2022-10-04T12:59:00.355Z,4896
2022-10-04T13:05:20.400Z,4648
2022-10-04T13:11:43.380Z,4297
2022-10-04T13:35:05.874Z,2670
2022-10-04T13:41:25.362Z,2243
2022-10-04T13:47:48.445Z,2038
2022-10-04T13:54:08.407Z,1870
2022-10-04T14:00:31.326Z,1812
2022-10-04T14:06:51.387Z,1706
2022-10-04T14:13:14.352Z,1758
2022-10-04T14:19:34.354Z,1710
2022-10-04T14:25:57.324Z,1619
2022-10-04T14:32:17.607Z,1537
2022-10-04T14:38:40.398Z,1482
2022-10-04T14:45:00.349Z,1451
2022-10-04T14:51:23.438Z,1474
2022-10-04T14:57:43.403Z,1451
2022-10-04T15:04:06.524Z,1451
2022-10-04T15:10:26.368Z,1432
2022-10-04T15:16:50.371Z,1416
2022-10-04T15:23:10.487Z,1444
2022-10-04T15:29:33.397Z,1340
2022-10-04T15:35:53.419Z,1272
2022-10-04T15:42:16.391Z,1337
2022-10-04T15:48:36.722Z,1221
2022-10-04T15:54:59.669Z,983
2022-10-04T16:01:19.408Z,857
2022-10-04T16:07:42.378Z,791
2022-10-04T16:14:02.371Z,676
2022-10-04T16:20:25.504Z,580
2022-10-04T16:26:45.730Z,553
2022-10-04T16:33:08.481Z,446
2022-10-04T16:39:28.433Z,365
2022-10-04T16:45:51.409Z,251
2022-10-04T16:52:11.558Z,140
2022-10-04T16:58:34.531Z,84
2022-10-04T17:04:54.523Z,53
2022-10-04T17:11:17.427Z,30
2022-10-04T17:17:37.420Z,12
2022-10-04T17:24:00.624Z,4
2022-10-04T17:30:20.321Z,1
2022-10-04T17:36:43.737Z,1
2022-10-04T17:43:03.493Z,0
2022-10-04T17:49:26.408Z,0
2022-10-04T17:55:46.463Z,0
2022-10-04T18:02:09.719Z,0
2022-10-04T18:24:58.310Z,0
2022-10-04T18:31:18.412Z,0
2022-10-04T18:37:41.365Z,0
2022-10-04T18:44:01.341Z,0
2022-10-04T18:50:24.343Z,0
2022-10-04T18:56:44.509Z,0
2022-10-04T19:03:07.439Z,0
2022-10-04T19:09:27.419Z,0
2022-10-04T19:15:50.495Z,0
2022-10-04T19:22:10.424Z,0
2022-10-04T19:28:33.580Z,0
2022-10-04T19:34:53.473Z,0
2022-10-04T19:41:16.536Z,0
2022-10-04T19:47:36.537Z,0
2022-10-04T19:53:59.470Z,0
2022-10-04T20:00:19.400Z,0
2022-10-04T20:06:42.504Z,0
2022-10-04T20:13:02.372Z,0
2022-10-04T20:19:25.343Z,0
2022-10-04T20:25:45.495Z,0
2022-10-04T20:32:08.351Z,0
2022-10-04T20:38:32.375Z,0
2022-10-04T20:44:52.374Z,0
2022-10-04T20:51:12.305Z,0
2022-10-04T20:57:39.710Z,0
2022-10-04T21:03:55.389Z,0
2022-10-04T21:10:18.525Z,0
2022-10-04T21:16:38.420Z,0
2022-10-04T21:23:01.424Z,0
2022-10-04T21:29:21.528Z,0
2022-10-04T21:35:44.469Z,0
2022-10-04T21:42:04.428Z,0
2022-10-04T21:48:27.386Z,0
2022-10-04T21:54:47.403Z,0
2022-10-04T22:20:21.384Z,0
2022-10-04T22:26:41.311Z,0
2022-10-04T22:33:04.369Z,0
2022-10-04T22:39:24.496Z,0
2022-10-04T22:45:47.400Z,0
2022-10-04T22:52:07.423Z,0
2022-10-04T22:58:30.415Z,0
2022-10-04T23:04:50.464Z,0
2022-10-04T23:11:13.324Z,0
2022-10-04T23:17:33.504Z,0
2022-10-04T23:23:56.311Z,0
2022-10-04T23:30:16.364Z,0
2022-10-04T23:36:39.346Z,0
2022-10-04T23:42:59.432Z,0
2022-10-04T23:49:22.352Z,0
2022-10-04T23:55:42.332Z,0
